This is the latest recevied weather packets stored in our database for station/object KK4XZ. If no packets are shown the sender has not sent any weather packets the latest 10 day(s).
| Time | Temp. | Humidity | Pressure | Rain* | Wind** | Luminosity | Snow |
|---|---|---|---|---|---|---|---|
| 1777219519 | 20° C | 91% | 1011.8 hPa | 0.51 mm | - | - | - |
| 1777218934 | 19.44° C | 94% | 1012 hPa | 0.51 mm | - | - | - |
| 1777218329 | 18.33° C | 95% | 1011.9 hPa | 0.51 mm | - | - | - |
| 1777217724 | 18.33° C | 95% | 1012.1 hPa | 0.76 mm | - | - | - |
| 1777217119 | 17.78° C | 95% | 1012.1 hPa | 0.51 mm | - | - | - |
| 1777216534 | 17.78° C | 95% | 1012.2 hPa | 0.51 mm | - | - | - |
| 1777215930 | 17.78° C | 95% | 1012.3 hPa | 0.25 mm | - | - | - |
| 1777215325 | 17.78° C | 94% | 1012.2 hPa | 0.25 mm | - | - | - |
| 1777214720 | 17.78° C | 94% | 1012.1 hPa | 0 mm | - | - | - |
| 1777214135 | 18.33° C | 93% | 1011.9 hPa | 0 mm | - | - | - |
| 1777213530 | 18.33° C | 92% | 1012 hPa | 0 mm | - | - | - |
| 1777212925 | 18.89° C | 90% | 1012 hPa | 0 mm | - | - | - |
| 1777212321 | 18.89° C | 88% | 1011.7 hPa | 0 mm | - | - | - |
| 1777211736 | 19.44° C | 89% | 1011.6 hPa | 0 mm | - | - | - |
| 1777211131 | 18.89° C | 89% | 1011.4 hPa | 0 mm | - | - | - |
| 1777210526 | 19.44° C | 88% | 1011.4 hPa | 0 mm | - | - | - |
| 1777209921 | 18.89° C | 90% | 1011.2 hPa | 0 mm | - | - | - |
| 1777209316 | 18.33° C | 91% | 1011.4 hPa | 0 mm | - | - | - |
| 1777208732 | 18.33° C | 93% | 1011.4 hPa | 0 mm | - | - | - |
| 1777208127 | 18.33° C | 93% | 1011.3 hPa | 0 mm | - | - | - |
| 1777207522 | 18.33° C | 92% | 1011.1 hPa | 0 mm | - | - | - |
| 1777206917 | 18.33° C | 92% | 1011.2 hPa | 0 mm | - | - | - |
| 1777206332 | 18.33° C | 92% | 1011.2 hPa | 0 mm | - | - | - |
| 1777205728 | 17.78° C | 92% | 1011 hPa | 0 mm | - | - | - |
| 1777205123 | 18.33° C | 92% | 1011 hPa | 0 mm | - | - | - |
* Rain latest hour (hover to see other rain measurements)
** Current wind speed in m/s (hover to see current wind gust speed)